sensor_id;sensor_type;location;lat;lon;timestamp;P1;durP1;ratioP1;P2;durP2;ratioP2
19207;SDS011;9737;59.466;18.036;2023-02-01T00:02:16;20.60;;;8.13;;
19207;SDS011;9737;59.466;18.036;2023-02-01T00:04:44;31.97;;;9.43;;
19207;SDS011;9737;59.466;18.036;2023-02-01T00:07:12;27.57;;;7.93;;
19207;SDS011;9737;59.466;18.036;2023-02-01T00:09:40;15.87;;;7.17;;
19207;SDS011;9737;59.466;18.036;2023-02-01T00:12:08;23.33;;;7.20;;
19207;SDS011;9737;59.466;18.036;2023-02-01T00:14:38;18.50;;;6.53;;
19207;SDS011;9737;59.466;18.036;2023-02-01T00:17:06;20.17;;;6.40;;
19207;SDS011;9737;59.466;18.036;2023-02-01T00:19:34;21.50;;;6.50;;
19207;SDS011;9737;59.466;18.036;2023-02-01T00:22:03;16.07;;;6.37;;
19207;SDS011;9737;59.466;18.036;2023-02-01T00:24:31;15.60;;;5.70;;
19207;SDS011;9737;59.466;18.036;2023-02-01T00:27:01;20.17;;;6.57;;
19207;SDS011;9737;59.466;18.036;2023-02-01T00:29:29;13.20;;;5.73;;
19207;SDS011;9737;59.466;18.036;2023-02-01T00:31:58;12.37;;;5.00;;
19207;SDS011;9737;59.466;18.036;2023-02-01T00:34:27;14.00;;;5.43;;
19207;SDS011;9737;59.466;18.036;2023-02-01T00:36:55;18.50;;;5.50;;
19207;SDS011;9737;59.466;18.036;2023-02-01T00:39:23;13.37;;;5.30;;
19207;SDS011;9737;59.466;18.036;2023-02-01T00:41:51;16.00;;;5.37;;
19207;SDS011;9737;59.466;18.036;2023-02-01T00:44:19;21.40;;;5.33;;
19207;SDS011;9737;59.466;18.036;2023-02-01T00:46:47;11.47;;;5.63;;
19207;SDS011;9737;59.466;18.036;2023-02-01T00:49:17;19.00;;;6.20;;
19207;SDS011;9737;59.466;18.036;2023-02-01T00:51:45;9.83;;;5.43;;
19207;SDS011;9737;59.466;18.036;2023-02-01T00:54:12;14.27;;;5.83;;
19207;SDS011;9737;59.466;18.036;2023-02-01T00:56:41;13.27;;;5.73;;
19207;SDS011;9737;59.466;18.036;2023-02-01T00:59:10;15.47;;;5.40;;
19207;SDS011;9737;59.466;18.036;2023-02-01T01:01:38;14.43;;;6.17;;
19207;SDS011;9737;59.466;18.036;2023-02-01T01:04:07;13.23;;;5.77;;
19207;SDS011;9737;59.466;18.036;2023-02-01T01:06:36;16.07;;;5.97;;
19207;SDS011;9737;59.466;18.036;2023-02-01T01:09:05;13.97;;;5.47;;
19207;SDS011;9737;59.466;18.036;2023-02-01T01:11:35;12.30;;;6.10;;
19207;SDS011;9737;59.466;18.036;2023-02-01T01:14:05;13.00;;;5.73;;
19207;SDS011;9737;59.466;18.036;2023-02-01T01:16:33;12.50;;;6.10;;
19207;SDS011;9737;59.466;18.036;2023-02-01T01:19:02;14.83;;;5.20;;
19207;SDS011;9737;59.466;18.036;2023-02-01T01:21:31;16.42;;;6.03;;
19207;SDS011;9737;59.466;18.036;2023-02-01T01:24:00;8.90;;;5.07;;
19207;SDS011;9737;59.466;18.036;2023-02-01T01:26:28;12.47;;;5.77;;
19207;SDS011;9737;59.466;18.036;2023-02-01T01:28:57;13.63;;;5.32;;
19207;SDS011;9737;59.466;18.036;2023-02-01T01:31:27;16.60;;;6.03;;
19207;SDS011;9737;59.466;18.036;2023-02-01T01:33:56;10.00;;;4.47;;
19207;SDS011;9737;59.466;18.036;2023-02-01T01:36:26;12.38;;;5.32;;
19207;SDS011;9737;59.466;18.036;2023-02-01T01:38:55;11.02;;;5.68;;
19207;SDS011;9737;59.466;18.036;2023-02-01T01:41:25;15.30;;;5.32;;
19207;SDS011;9737;59.466;18.036;2023-02-01T01:43:58;9.93;;;5.13;;
19207;SDS011;9737;59.466;18.036;2023-02-01T01:46:27;12.90;;;5.55;;
19207;SDS011;9737;59.466;18.036;2023-02-01T01:48:59;13.57;;;6.13;;
19207;SDS011;9737;59.466;18.036;2023-02-01T01:51:32;12.17;;;5.17;;
19207;SDS011;9737;59.466;18.036;2023-02-01T01:54:05;11.55;;;5.85;;
19207;SDS011;9737;59.466;18.036;2023-02-01T01:56:39;15.40;;;6.07;;
19207;SDS011;9737;59.466;18.036;2023-02-01T01:59:09;18.77;;;6.75;;
19207;SDS011;9737;59.466;18.036;2023-02-01T02:01:36;12.57;;;6.28;;
19207;SDS011;9737;59.466;18.036;2023-02-01T02:04:04;17.80;;;6.95;;
19207;SDS011;9737;59.466;18.036;2023-02-01T02:06:36;16.00;;;6.85;;
19207;SDS011;9737;59.466;18.036;2023-02-01T02:09:13;16.02;;;6.78;;
19207;SDS011;9737;59.466;18.036;2023-02-01T02:11:46;18.70;;;7.32;;
19207;SDS011;9737;59.466;18.036;2023-02-01T02:14:15;21.35;;;7.32;;
19207;SDS011;9737;59.466;18.036;2023-02-01T02:16:51;19.58;;;8.05;;
19207;SDS011;9737;59.466;18.036;2023-02-01T02:19:32;16.73;;;7.07;;
19207;SDS011;9737;59.466;18.036;2023-02-01T02:25:45;14.02;;;7.07;;
19207;SDS011;9737;59.466;18.036;2023-02-01T02:28:35;14.68;;;7.93;;
19207;SDS011;9737;59.466;18.036;2023-02-01T02:34:14;21.63;;;8.95;;
19207;SDS011;9737;59.466;18.036;2023-02-01T02:36:51;18.42;;;8.27;;
19207;SDS011;9737;59.466;18.036;2023-02-01T02:39:34;33.95;;;8.65;;
19207;SDS011;9737;59.466;18.036;2023-02-01T02:42:08;19.35;;;7.43;;
19207;SDS011;9737;59.466;18.036;2023-02-01T02:45:01;18.23;;;7.85;;
19207;SDS011;9737;59.466;18.036;2023-02-01T02:47:54;17.10;;;7.15;;
19207;SDS011;9737;59.466;18.036;2023-02-01T02:50:26;17.77;;;7.63;;
19207;SDS011;9737;59.466;18.036;2023-02-01T02:53:17;20.30;;;7.57;;
19207;SDS011;9737;59.466;18.036;2023-02-01T02:56:06;17.25;;;7.28;;
19207;SDS011;9737;59.466;18.036;2023-02-01T02:58:54;18.30;;;8.20;;
19207;SDS011;9737;59.466;18.036;2023-02-01T03:01:41;18.42;;;7.32;;
19207;SDS011;9737;59.466;18.036;2023-02-01T03:04:27;16.48;;;7.30;;
19207;SDS011;9737;59.466;18.036;2023-02-01T03:06:56;16.05;;;7.72;;
19207;SDS011;9737;59.466;18.036;2023-02-01T03:09:26;20.75;;;7.80;;
19207;SDS011;9737;59.466;18.036;2023-02-01T03:11:59;17.67;;;7.75;;
19207;SDS011;9737;59.466;18.036;2023-02-01T03:14:50;18.05;;;7.47;;
19207;SDS011;9737;59.466;18.036;2023-02-01T03:17:26;23.13;;;7.95;;
19207;SDS011;9737;59.466;18.036;2023-02-01T03:20:00;18.95;;;7.47;;
19207;SDS011;9737;59.466;18.036;2023-02-01T03:22:31;15.65;;;7.38;;
19207;SDS011;9737;59.466;18.036;2023-02-01T03:25:02;19.33;;;8.10;;
19207;SDS011;9737;59.466;18.036;2023-02-01T03:27:34;21.02;;;7.03;;
19207;SDS011;9737;59.466;18.036;2023-02-01T03:30:06;20.70;;;7.57;;
19207;SDS011;9737;59.466;18.036;2023-02-01T03:32:39;22.50;;;7.70;;
19207;SDS011;9737;59.466;18.036;2023-02-01T03:35:37;23.00;;;7.28;;
19207;SDS011;9737;59.466;18.036;2023-02-01T03:38:12;15.80;;;7.38;;
19207;SDS011;9737;59.466;18.036;2023-02-01T03:40:45;21.25;;;8.00;;
19207;SDS011;9737;59.466;18.036;2023-02-01T03:43:18;24.27;;;8.48;;
19207;SDS011;9737;59.466;18.036;2023-02-01T03:45:50;15.93;;;8.73;;
19207;SDS011;9737;59.466;18.036;2023-02-01T03:48:22;16.45;;;7.75;;
19207;SDS011;9737;59.466;18.036;2023-02-01T03:50:55;17.55;;;7.05;;
19207;SDS011;9737;59.466;18.036;2023-02-01T03:53:26;19.45;;;7.30;;
19207;SDS011;9737;59.466;18.036;2023-02-01T03:55:56;16.55;;;6.82;;
19207;SDS011;9737;59.466;18.036;2023-02-01T03:58:25;15.25;;;6.47;;
19207;SDS011;9737;59.466;18.036;2023-02-01T04:00:54;20.52;;;7.65;;
19207;SDS011;9737;59.466;18.036;2023-02-01T04:03:23;13.35;;;7.03;;
19207;SDS011;9737;59.466;18.036;2023-02-01T04:05:53;16.67;;;6.85;;
19207;SDS011;9737;59.466;18.036;2023-02-01T04:08:23;18.48;;;6.95;;
19207;SDS011;9737;59.466;18.036;2023-02-01T04:10:51;18.25;;;7.35;;
19207;SDS011;9737;59.466;18.036;2023-02-01T04:13:19;21.50;;;6.97;;
19207;SDS011;9737;59.466;18.036;2023-02-01T04:15:47;15.77;;;6.85;;
19207;SDS011;9737;59.466;18.036;2023-02-01T04:18:17;19.65;;;6.93;;
19207;SDS011;9737;59.466;18.036;2023-02-01T04:20:45;19.85;;;7.55;;
19207;SDS011;9737;59.466;18.036;2023-02-01T04:23:14;13.27;;;6.55;;
19207;SDS011;9737;59.466;18.036;2023-02-01T04:25:43;16.67;;;6.22;;
19207;SDS011;9737;59.466;18.036;2023-02-01T04:28:11;12.30;;;6.68;;
19207;SDS011;9737;59.466;18.036;2023-02-01T04:30:39;14.63;;;6.85;;
19207;SDS011;9737;59.466;18.036;2023-02-01T04:33:07;14.50;;;6.78;;
19207;SDS011;9737;59.466;18.036;2023-02-01T04:35:35;15.88;;;6.97;;
19207;SDS011;9737;59.466;18.036;2023-02-01T04:38:03;17.02;;;6.30;;
19207;SDS011;9737;59.466;18.036;2023-02-01T04:40:32;16.30;;;6.95;;
19207;SDS011;9737;59.466;18.036;2023-02-01T04:43:01;11.45;;;5.53;;
19207;SDS011;9737;59.466;18.036;2023-02-01T04:45:30;16.98;;;6.30;;
19207;SDS011;9737;59.466;18.036;2023-02-01T04:47:58;16.50;;;6.47;;
19207;SDS011;9737;59.466;18.036;2023-02-01T04:50:26;15.18;;;6.20;;
19207;SDS011;9737;59.466;18.036;2023-02-01T04:52:54;14.07;;;5.82;;
19207;SDS011;9737;59.466;18.036;2023-02-01T04:55:22;14.93;;;6.13;;
19207;SDS011;9737;59.466;18.036;2023-02-01T04:57:51;18.00;;;7.00;;
19207;SDS011;9737;59.466;18.036;2023-02-01T05:00:20;12.40;;;6.18;;
19207;SDS011;9737;59.466;18.036;2023-02-01T05:02:48;11.40;;;6.50;;
19207;SDS011;9737;59.466;18.036;2023-02-01T05:05:16;19.05;;;6.70;;
19207;SDS011;9737;59.466;18.036;2023-02-01T05:07:45;10.32;;;6.18;;
19207;SDS011;9737;59.466;18.036;2023-02-01T05:10:13;15.65;;;6.70;;
19207;SDS011;9737;59.466;18.036;2023-02-01T05:12:42;16.20;;;6.43;;
19207;SDS011;9737;59.466;18.036;2023-02-01T05:15:30;15.10;;;6.78;;
19207;SDS011;9737;59.466;18.036;2023-02-01T05:17:58;18.70;;;7.13;;
19207;SDS011;9737;59.466;18.036;2023-02-01T05:20:26;15.20;;;6.65;;
19207;SDS011;9737;59.466;18.036;2023-02-01T05:22:55;17.73;;;6.40;;
19207;SDS011;9737;59.466;18.036;2023-02-01T05:25:23;16.13;;;6.35;;
19207;SDS011;9737;59.466;18.036;2023-02-01T05:27:51;13.18;;;6.30;;
19207;SDS011;9737;59.466;18.036;2023-02-01T05:30:19;13.30;;;6.30;;
19207;SDS011;9737;59.466;18.036;2023-02-01T05:32:50;38.50;;;7.07;;
19207;SDS011;9737;59.466;18.036;2023-02-01T05:35:19;17.80;;;6.20;;
19207;SDS011;9737;59.466;18.036;2023-02-01T05:37:48;23.13;;;6.88;;
19207;SDS011;9737;59.466;18.036;2023-02-01T05:40:16;25.13;;;7.28;;
19207;SDS011;9737;59.466;18.036;2023-02-01T05:42:44;28.23;;;6.55;;
19207;SDS011;9737;59.466;18.036;2023-02-01T05:45:12;14.15;;;6.50;;
19207;SDS011;9737;59.466;18.036;2023-02-01T05:47:40;19.65;;;6.65;;
19207;SDS011;9737;59.466;18.036;2023-02-01T05:50:10;15.07;;;6.40;;
19207;SDS011;9737;59.466;18.036;2023-02-01T05:52:38;18.80;;;6.97;;
19207;SDS011;9737;59.466;18.036;2023-02-01T05:55:07;15.45;;;6.30;;
19207;SDS011;9737;59.466;18.036;2023-02-01T05:57:35;27.08;;;6.95;;
19207;SDS011;9737;59.466;18.036;2023-02-01T06:00:03;23.27;;;6.45;;
19207;SDS011;9737;59.466;18.036;2023-02-01T06:02:32;15.68;;;6.50;;
19207;SDS011;9737;59.466;18.036;2023-02-01T06:05:00;34.47;;;7.00;;
19207;SDS011;9737;59.466;18.036;2023-02-01T06:07:29;27.33;;;6.05;;
19207;SDS011;9737;59.466;18.036;2023-02-01T06:10:00;27.33;;;6.68;;
19207;SDS011;9737;59.466;18.036;2023-02-01T06:12:28;22.20;;;6.03;;
19207;SDS011;9737;59.466;18.036;2023-02-01T06:14:56;20.38;;;5.93;;
19207;SDS011;9737;59.466;18.036;2023-02-01T06:17:25;38.55;;;6.78;;
19207;SDS011;9737;59.466;18.036;2023-02-01T06:19:53;27.25;;;6.03;;
19207;SDS011;9737;59.466;18.036;2023-02-01T06:22:21;13.10;;;5.75;;
19207;SDS011;9737;59.466;18.036;2023-02-01T06:24:50;15.48;;;6.22;;
19207;SDS011;9737;59.466;18.036;2023-02-01T06:27:18;14.95;;;5.35;;
19207;SDS011;9737;59.466;18.036;2023-02-01T06:29:46;41.78;;;6.35;;
19207;SDS011;9737;59.466;18.036;2023-02-01T06:32:14;18.90;;;5.68;;
19207;SDS011;9737;59.466;18.036;2023-02-01T06:34:43;20.45;;;5.65;;
19207;SDS011;9737;59.466;18.036;2023-02-01T06:37:11;19.70;;;6.03;;
19207;SDS011;9737;59.466;18.036;2023-02-01T06:39:40;32.13;;;6.18;;
19207;SDS011;9737;59.466;18.036;2023-02-01T06:42:09;16.75;;;5.10;;
19207;SDS011;9737;59.466;18.036;2023-02-01T06:44:37;21.63;;;6.07;;
19207;SDS011;9737;59.466;18.036;2023-02-01T06:47:05;25.55;;;5.53;;
19207;SDS011;9737;59.466;18.036;2023-02-01T06:49:34;29.38;;;6.00;;
19207;SDS011;9737;59.466;18.036;2023-02-01T06:52:02;16.20;;;6.07;;
19207;SDS011;9737;59.466;18.036;2023-02-01T06:54:30;20.75;;;4.65;;
19207;SDS011;9737;59.466;18.036;2023-02-01T06:57:00;23.58;;;5.03;;
19207;SDS011;9737;59.466;18.036;2023-02-01T06:59:29;30.83;;;5.22;;
19207;SDS011;9737;59.466;18.036;2023-02-01T07:01:57;20.50;;;4.50;;
19207;SDS011;9737;59.466;18.036;2023-02-01T07:04:25;19.60;;;4.80;;
19207;SDS011;9737;59.466;18.036;2023-02-01T07:06:53;13.48;;;5.30;;
19207;SDS011;9737;59.466;18.036;2023-02-01T07:09:21;21.52;;;4.82;;
19207;SDS011;9737;59.466;18.036;2023-02-01T07:11:49;18.80;;;4.80;;
19207;SDS011;9737;59.466;18.036;2023-02-01T07:14:18;17.98;;;4.63;;
19207;SDS011;9737;59.466;18.036;2023-02-01T07:16:47;12.75;;;4.97;;
19207;SDS011;9737;59.466;18.036;2023-02-01T07:19:15;14.05;;;5.20;;
19207;SDS011;9737;59.466;18.036;2023-02-01T07:21:43;13.80;;;4.80;;
19207;SDS011;9737;59.466;18.036;2023-02-01T07:24:14;15.98;;;4.65;;
19207;SDS011;9737;59.466;18.036;2023-02-01T07:26:42;10.35;;;4.88;;
19207;SDS011;9737;59.466;18.036;2023-02-01T07:29:10;20.38;;;4.88;;
19207;SDS011;9737;59.466;18.036;2023-02-01T07:31:38;14.95;;;5.57;;
19207;SDS011;9737;59.466;18.036;2023-02-01T07:34:07;17.80;;;5.40;;
19207;SDS011;9737;59.466;18.036;2023-02-01T07:36:35;13.43;;;5.50;;
19207;SDS011;9737;59.466;18.036;2023-02-01T07:39:03;16.73;;;5.80;;
19207;SDS011;9737;59.466;18.036;2023-02-01T07:41:31;18.60;;;5.57;;
19207;SDS011;9737;59.466;18.036;2023-02-01T07:43:59;10.25;;;5.32;;
19207;SDS011;9737;59.466;18.036;2023-02-01T07:46:28;16.27;;;4.65;;
19207;SDS011;9737;59.466;18.036;2023-02-01T07:48:56;26.73;;;8.95;;
19207;SDS011;9737;59.466;18.036;2023-02-01T07:51:25;12.30;;;4.82;;
19207;SDS011;9737;59.466;18.036;2023-02-01T07:53:53;19.02;;;4.68;;
19207;SDS011;9737;59.466;18.036;2023-02-01T07:56:21;16.70;;;4.90;;
19207;SDS011;9737;59.466;18.036;2023-02-01T07:58:50;14.82;;;5.53;;
19207;SDS011;9737;59.466;18.036;2023-02-01T08:01:20;12.45;;;5.45;;
19207;SDS011;9737;59.466;18.036;2023-02-01T08:03:51;19.40;;;5.22;;
19207;SDS011;9737;59.466;18.036;2023-02-01T08:06:21;13.57;;;5.18;;
19207;SDS011;9737;59.466;18.036;2023-02-01T08:08:52;17.98;;;6.25;;
19207;SDS011;9737;59.466;18.036;2023-02-01T08:11:21;18.17;;;7.05;;
19207;SDS011;9737;59.466;18.036;2023-02-01T08:13:50;18.27;;;6.93;;
19207;SDS011;9737;59.466;18.036;2023-02-01T08:16:19;20.73;;;5.50;;
19207;SDS011;9737;59.466;18.036;2023-02-01T08:18:47;16.77;;;5.20;;
19207;SDS011;9737;59.466;18.036;2023-02-01T08:21:16;16.00;;;5.60;;
19207;SDS011;9737;59.466;18.036;2023-02-01T08:23:46;17.17;;;5.57;;
19207;SDS011;9737;59.466;18.036;2023-02-01T08:26:16;17.05;;;6.03;;
19207;SDS011;9737;59.466;18.036;2023-02-01T08:28:46;16.95;;;6.00;;
19207;SDS011;9737;59.466;18.036;2023-02-01T08:31:15;18.33;;;5.93;;
19207;SDS011;9737;59.466;18.036;2023-02-01T08:33:48;17.40;;;5.28;;
19207;SDS011;9737;59.466;18.036;2023-02-01T08:36:17;15.70;;;5.22;;
19207;SDS011;9737;59.466;18.036;2023-02-01T08:38:45;12.18;;;5.35;;
19207;SDS011;9737;59.466;18.036;2023-02-01T08:41:14;11.18;;;5.95;;
19207;SDS011;9737;59.466;18.036;2023-02-01T08:43:44;16.27;;;6.30;;
19207;SDS011;9737;59.466;18.036;2023-02-01T08:46:14;16.80;;;5.95;;
19207;SDS011;9737;59.466;18.036;2023-02-01T08:48:42;12.13;;;6.35;;
19207;SDS011;9737;59.466;18.036;2023-02-01T08:51:12;16.65;;;5.93;;
19207;SDS011;9737;59.466;18.036;2023-02-01T08:53:41;12.52;;;5.55;;
19207;SDS011;9737;59.466;18.036;2023-02-01T08:56:11;18.13;;;6.97;;
19207;SDS011;9737;59.466;18.036;2023-02-01T08:58:41;18.35;;;6.85;;
19207;SDS011;9737;59.466;18.036;2023-02-01T09:01:10;14.38;;;5.85;;
19207;SDS011;9737;59.466;18.036;2023-02-01T09:03:41;17.17;;;6.78;;
19207;SDS011;9737;59.466;18.036;2023-02-01T09:06:09;16.70;;;5.47;;
19207;SDS011;9737;59.466;18.036;2023-02-01T09:08:40;12.35;;;5.40;;
19207;SDS011;9737;59.466;18.036;2023-02-01T09:11:10;17.08;;;5.10;;
19207;SDS011;9737;59.466;18.036;2023-02-01T09:13:41;15.27;;;5.57;;
19207;SDS011;9737;59.466;18.036;2023-02-01T09:16:09;11.07;;;5.35;;
19207;SDS011;9737;59.466;18.036;2023-02-01T09:18:37;14.50;;;5.90;;
19207;SDS011;9737;59.466;18.036;2023-02-01T09:21:21;14.50;;;5.68;;
19207;SDS011;9737;59.466;18.036;2023-02-01T09:23:50;12.40;;;5.28;;
19207;SDS011;9737;59.466;18.036;2023-02-01T09:26:18;15.27;;;5.00;;
19207;SDS011;9737;59.466;18.036;2023-02-01T09:28:57;16.58;;;4.78;;
19207;SDS011;9737;59.466;18.036;2023-02-01T09:31:26;16.38;;;5.78;;
19207;SDS011;9737;59.466;18.036;2023-02-01T09:33:54;12.38;;;5.05;;
19207;SDS011;9737;59.466;18.036;2023-02-01T09:36:22;12.38;;;5.20;;
19207;SDS011;9737;59.466;18.036;2023-02-01T09:38:50;19.60;;;5.50;;
19207;SDS011;9737;59.466;18.036;2023-02-01T09:41:21;14.18;;;5.10;;
19207;SDS011;9737;59.466;18.036;2023-02-01T09:44:07;13.32;;;5.47;;
19207;SDS011;9737;59.466;18.036;2023-02-01T09:46:44;14.25;;;5.22;;
19207;SDS011;9737;59.466;18.036;2023-02-01T09:49:13;13.30;;;5.97;;
19207;SDS011;9737;59.466;18.036;2023-02-01T09:51:47;25.55;;;8.68;;
19207;SDS011;9737;59.466;18.036;2023-02-01T09:54:18;23.20;;;6.80;;
19207;SDS011;9737;59.466;18.036;2023-02-01T09:56:48;13.77;;;6.38;;
19207;SDS011;9737;59.466;18.036;2023-02-01T09:59:29;17.65;;;6.80;;
19207;SDS011;9737;59.466;18.036;2023-02-01T10:02:03;17.30;;;6.25;;
19207;SDS011;9737;59.466;18.036;2023-02-01T10:04:38;18.80;;;6.05;;
19207;SDS011;9737;59.466;18.036;2023-02-01T10:07:12;15.20;;;5.63;;
19207;SDS011;9737;59.466;18.036;2023-02-01T10:09:52;14.75;;;5.95;;
19207;SDS011;9737;59.466;18.036;2023-02-01T10:15:24;20.98;;;8.10;;
19207;SDS011;9737;59.466;18.036;2023-02-01T10:18:06;20.67;;;6.35;;
19207;SDS011;9737;59.466;18.036;2023-02-01T10:20:51;18.58;;;7.03;;
19207;SDS011;9737;59.466;18.036;2023-02-01T10:23:31;19.27;;;6.53;;
19207;SDS011;9737;59.466;18.036;2023-02-01T10:26:17;14.40;;;5.57;;
19207;SDS011;9737;59.466;18.036;2023-02-01T10:28:48;18.85;;;5.22;;
19207;SDS011;9737;59.466;18.036;2023-02-01T10:31:19;14.80;;;6.30;;
19207;SDS011;9737;59.466;18.036;2023-02-01T10:33:50;19.38;;;5.38;;
19207;SDS011;9737;59.466;18.036;2023-02-01T10:36:23;11.50;;;4.55;;
19207;SDS011;9737;59.466;18.036;2023-02-01T10:38:57;10.88;;;4.63;;
19207;SDS011;9737;59.466;18.036;2023-02-01T10:41:28;18.08;;;4.53;;
19207;SDS011;9737;59.466;18.036;2023-02-01T10:44:00;14.23;;;4.53;;
19207;SDS011;9737;59.466;18.036;2023-02-01T10:46:33;12.38;;;4.30;;
19207;SDS011;9737;59.466;18.036;2023-02-01T10:49:02;11.40;;;4.20;;
19207;SDS011;9737;59.466;18.036;2023-02-01T10:51:36;8.50;;;4.50;;
19207;SDS011;9737;59.466;18.036;2023-02-01T10:54:13;10.63;;;3.90;;
19207;SDS011;9737;59.466;18.036;2023-02-01T10:56:47;11.20;;;4.15;;
19207;SDS011;9737;59.466;18.036;2023-02-01T10:59:16;25.83;;;7.50;;
19207;SDS011;9737;59.466;18.036;2023-02-01T11:01:47;16.67;;;7.18;;
19207;SDS011;9737;59.466;18.036;2023-02-01T11:04:17;27.90;;;9.40;;
19207;SDS011;9737;59.466;18.036;2023-02-01T11:06:47;14.30;;;4.47;;
19207;SDS011;9737;59.466;18.036;2023-02-01T11:09:19;9.20;;;4.03;;
19207;SDS011;9737;59.466;18.036;2023-02-01T11:11:56;19.15;;;4.13;;
19207;SDS011;9737;59.466;18.036;2023-02-01T11:14:26;13.73;;;4.03;;
19207;SDS011;9737;59.466;18.036;2023-02-01T11:17:12;11.25;;;4.53;;
19207;SDS011;9737;59.466;18.036;2023-02-01T11:19:56;10.27;;;3.45;;
19207;SDS011;9737;59.466;18.036;2023-02-01T11:22:25;18.35;;;4.57;;
19207;SDS011;9737;59.466;18.036;2023-02-01T11:24:57;10.13;;;4.68;;
19207;SDS011;9737;59.466;18.036;2023-02-01T11:27:28;13.25;;;4.75;;
19207;SDS011;9737;59.466;18.036;2023-02-01T11:29:58;20.67;;;4.85;;
19207;SDS011;9737;59.466;18.036;2023-02-01T11:32:29;15.25;;;5.82;;
19207;SDS011;9737;59.466;18.036;2023-02-01T11:34:59;16.42;;;6.05;;
19207;SDS011;9737;59.466;18.036;2023-02-01T11:37:30;9.18;;;4.90;;
19207;SDS011;9737;59.466;18.036;2023-02-01T11:40:03;12.77;;;4.30;;
19207;SDS011;9737;59.466;18.036;2023-02-01T11:42:55;13.75;;;5.68;;
19207;SDS011;9737;59.466;18.036;2023-02-01T11:45:26;10.20;;;5.38;;
19207;SDS011;9737;59.466;18.036;2023-02-01T11:47:56;17.80;;;5.25;;
19207;SDS011;9737;59.466;18.036;2023-02-01T11:50:28;8.93;;;4.28;;
19207;SDS011;9737;59.466;18.036;2023-02-01T11:53:07;12.05;;;4.53;;
19207;SDS011;9737;59.466;18.036;2023-02-01T11:55:49;15.40;;;4.63;;
19207;SDS011;9737;59.466;18.036;2023-02-01T11:58:48;9.68;;;4.07;;
19207;SDS011;9737;59.466;18.036;2023-02-01T12:04:40;10.70;;;5.32;;
19207;SDS011;9737;59.466;18.036;2023-02-01T12:07:25;11.48;;;5.20;;
19207;SDS011;9737;59.466;18.036;2023-02-01T12:10:05;9.57;;;4.93;;
19207;SDS011;9737;59.466;18.036;2023-02-01T12:12:44;12.90;;;5.72;;
19207;SDS011;9737;59.466;18.036;2023-02-01T12:15:33;9.02;;;4.40;;
19207;SDS011;9737;59.466;18.036;2023-02-01T12:21:23;13.15;;;3.80;;
19207;SDS011;9737;59.466;18.036;2023-02-01T12:24:06;15.93;;;4.38;;
19207;SDS011;9737;59.466;18.036;2023-02-01T12:27:01;9.10;;;3.75;;
19207;SDS011;9737;59.466;18.036;2023-02-01T12:29:48;8.88;;;4.03;;
19207;SDS011;9737;59.466;18.036;2023-02-01T12:32:33;10.88;;;4.00;;
19207;SDS011;9737;59.466;18.036;2023-02-01T12:35:13;7.28;;;4.05;;
19207;SDS011;9737;59.466;18.036;2023-02-01T12:37:57;9.85;;;4.38;;
19207;SDS011;9737;59.466;18.036;2023-02-01T12:40:39;11.00;;;3.90;;
19207;SDS011;9737;59.466;18.036;2023-02-01T12:43:16;9.70;;;3.75;;
19207;SDS011;9737;59.466;18.036;2023-02-01T12:45:52;6.07;;;3.17;;
19207;SDS011;9737;59.466;18.036;2023-02-01T12:48:26;10.07;;;3.83;;
19207;SDS011;9737;59.466;18.036;2023-02-01T12:51:00;11.65;;;5.63;;
19207;SDS011;9737;59.466;18.036;2023-02-01T12:53:43;7.90;;;3.63;;
19207;SDS011;9737;59.466;18.036;2023-02-01T12:56:15;10.52;;;4.00;;
19207;SDS011;9737;59.466;18.036;2023-02-01T12:58:49;10.93;;;4.03;;
19207;SDS011;9737;59.466;18.036;2023-02-01T13:01:21;7.15;;;3.90;;
19207;SDS011;9737;59.466;18.036;2023-02-01T13:03:57;6.13;;;3.63;;
19207;SDS011;9737;59.466;18.036;2023-02-01T13:06:32;7.05;;;3.92;;
19207;SDS011;9737;59.466;18.036;2023-02-01T13:09:08;9.75;;;3.80;;
19207;SDS011;9737;59.466;18.036;2023-02-01T13:11:45;7.22;;;3.63;;
19207;SDS011;9737;59.466;18.036;2023-02-01T13:14:17;7.90;;;3.53;;
19207;SDS011;9737;59.466;18.036;2023-02-01T13:16:54;6.40;;;3.40;;
19207;SDS011;9737;59.466;18.036;2023-02-01T13:19:28;13.27;;;4.72;;
19207;SDS011;9737;59.466;18.036;2023-02-01T13:22:10;12.00;;;3.90;;
19207;SDS011;9737;59.466;18.036;2023-02-01T13:24:43;16.08;;;6.70;;
19207;SDS011;9737;59.466;18.036;2023-02-01T13:27:15;20.70;;;9.18;;
19207;SDS011;9737;59.466;18.036;2023-02-01T13:29:46;19.88;;;9.50;;
19207;SDS011;9737;59.466;18.036;2023-02-01T13:32:34;9.18;;;5.68;;
19207;SDS011;9737;59.466;18.036;2023-02-01T13:35:45;13.73;;;5.60;;
19207;SDS011;9737;59.466;18.036;2023-02-01T13:38:26;4.38;;;3.00;;
19207;SDS011;9737;59.466;18.036;2023-02-01T13:41:11;5.03;;;2.90;;
19207;SDS011;9737;59.466;18.036;2023-02-01T13:43:54;9.88;;;4.50;;
19207;SDS011;9737;59.466;18.036;2023-02-01T13:46:25;9.00;;;3.03;;
19207;SDS011;9737;59.466;18.036;2023-02-01T13:48:55;6.82;;;3.70;;
19207;SDS011;9737;59.466;18.036;2023-02-01T13:51:34;8.13;;;3.90;;
19207;SDS011;9737;59.466;18.036;2023-02-01T13:54:04;6.95;;;3.25;;
19207;SDS011;9737;59.466;18.036;2023-02-01T13:56:41;6.18;;;3.05;;
19207;SDS011;9737;59.466;18.036;2023-02-01T14:08:40;8.52;;;3.03;;
19207;SDS011;9737;59.466;18.036;2023-02-01T14:23:21;7.90;;;2.40;;
19207;SDS011;9737;59.466;18.036;2023-02-01T14:26:04;5.18;;;2.53;;
19207;SDS011;9737;59.466;18.036;2023-02-01T14:28:50;5.57;;;2.85;;
19207;SDS011;9737;59.466;18.036;2023-02-01T14:31:34;3.40;;;2.63;;
19207;SDS011;9737;59.466;18.036;2023-02-01T14:34:15;8.15;;;2.95;;
19207;SDS011;9737;59.466;18.036;2023-02-01T14:36:47;4.10;;;2.35;;
19207;SDS011;9737;59.466;18.036;2023-02-01T14:42:06;4.25;;;2.55;;
19207;SDS011;9737;59.466;18.036;2023-02-01T14:44:48;3.80;;;2.50;;
19207;SDS011;9737;59.466;18.036;2023-02-01T14:47:27;3.97;;;2.70;;
19207;SDS011;9737;59.466;18.036;2023-02-01T14:53:16;5.22;;;3.15;;
19207;SDS011;9737;59.466;18.036;2023-02-01T14:55:49;9.82;;;3.70;;
19207;SDS011;9737;59.466;18.036;2023-02-01T14:58:21;7.97;;;3.88;;
19207;SDS011;9737;59.466;18.036;2023-02-01T15:01:00;7.10;;;3.65;;
19207;SDS011;9737;59.466;18.036;2023-02-01T15:03:36;8.98;;;3.67;;
19207;SDS011;9737;59.466;18.036;2023-02-01T15:06:23;6.35;;;3.17;;
19207;SDS011;9737;59.466;18.036;2023-02-01T15:08:54;5.65;;;3.50;;
19207;SDS011;9737;59.466;18.036;2023-02-01T15:11:25;7.03;;;3.17;;
19207;SDS011;9737;59.466;18.036;2023-02-01T15:13:53;6.25;;;3.10;;
19207;SDS011;9737;59.466;18.036;2023-02-01T15:16:23;6.97;;;3.28;;
19207;SDS011;9737;59.466;18.036;2023-02-01T15:19:10;9.98;;;4.47;;
19207;SDS011;9737;59.466;18.036;2023-02-01T15:21:42;9.30;;;4.95;;
19207;SDS011;9737;59.466;18.036;2023-02-01T15:24:12;7.55;;;3.53;;
19207;SDS011;9737;59.466;18.036;2023-02-01T15:26:40;5.78;;;3.00;;
19207;SDS011;9737;59.466;18.036;2023-02-01T15:29:10;5.68;;;3.30;;
19207;SDS011;9737;59.466;18.036;2023-02-01T15:31:40;7.78;;;3.10;;
19207;SDS011;9737;59.466;18.036;2023-02-01T15:34:12;6.68;;;3.65;;
19207;SDS011;9737;59.466;18.036;2023-02-01T15:36:40;8.15;;;3.38;;
19207;SDS011;9737;59.466;18.036;2023-02-01T15:39:27;9.52;;;3.25;;
19207;SDS011;9737;59.466;18.036;2023-02-01T15:41:59;8.25;;;3.30;;
19207;SDS011;9737;59.466;18.036;2023-02-01T15:44:30;9.50;;;4.90;;
19207;SDS011;9737;59.466;18.036;2023-02-01T15:47:06;9.05;;;4.75;;
19207;SDS011;9737;59.466;18.036;2023-02-01T15:49:41;9.82;;;5.40;;
19207;SDS011;9737;59.466;18.036;2023-02-01T15:52:16;11.02;;;6.32;;